TAF KCVG
KCVG 072321Z 0800/0906 VRB03KT P6SM VCSH OVC050 FM080900 14003KT P6SM BKN050 FM081500 23006KT P6SM SCT050 BKN100 FM082000 26008KT P6SM SCT250 FM090000 28005KT P6SM FEW250=
METAR KCVG
WC KCVG
WS KCVG
WV KCVG